Time;durP1;ratioP1;P1;durP2;ratioP2;P2;SDS_P1;SDS_P2;PMS_P1;PMS_P2;Temp;Humidity;BMP_temperature;BMP_pressure;BME280_temperature;BME280_humidity;BME280_pressure;Samples;Min_cycle;Max_cycle;Signal;HPM_P1;HPM_P2
2022/12/19 00:00:13;;;;;;;30.73;12.93;;;;;;;;;;10530154;28;20036;-78
2022/12/19 00:05:13;;;;;;;36.70;14.68;;;;;;;;;;10510684;28;20020;-79
2022/12/19 00:10:13;;;;;;;24.85;12.32;;;;;;;;;;10525384;28;20123;-76
2022/12/19 00:15:13;;;;;;;31.98;13.73;;;;;;;;;;10519895;28;20413;-80
2022/12/19 00:20:14;;;;;;;37.47;13.50;;;;;;;;;;10509443;28;20027;-75
2022/12/19 00:25:14;;;;;;;40.10;17.45;;;;;;;;;;10509327;28;20115;-82
2022/12/19 00:30:14;;;;;;;37.63;15.23;;;;;;;;;;10513426;28;20021;-75
2022/12/19 00:35:15;;;;;;;32.27;15.70;;;;;;;;;;10466865;28;20032;-79
2022/12/19 00:40:15;;;;;;;38.17;15.57;;;;;;;;;;10500623;28;20027;-78
2022/12/19 00:45:15;;;;;;;34.60;14.43;;;;;;;;;;10484028;28;20032;-77
2022/12/19 00:50:16;;;;;;;34.27;14.03;;;;;;;;;;10510808;28;20282;-73
2022/12/19 00:55:16;;;;;;;35.60;15.17;;;;;;;;;;10507529;28;20298;-78
2022/12/19 01:00:16;;;;;;;30.42;13.15;;;;;;;;;;10497831;28;20125;-81
2022/12/19 01:05:17;;;;;;;35.07;15.57;;;;;;;;;;10514540;28;20458;-80
2022/12/19 01:10:17;;;;;;;36.73;13.30;;;;;;;;;;10524704;28;20321;-74
2022/12/19 01:15:21;;;;;;;32.63;14.57;;;;;;;;;;10524854;28;20031;-75
2022/12/19 01:20:22;;;;;;;36.15;14.23;;;;;;;;;;10506643;28;20676;-76
2022/12/19 01:25:22;;;;;;;34.97;15.23;;;;;;;;;;10525310;28;20028;-81
2022/12/19 01:30:23;;;;;;;39.38;15.23;;;;;;;;;;10528230;28;20024;-77
2022/12/19 01:35:23;;;;;;;31.97;14.40;;;;;;;;;;10530535;28;20024;-76
2022/12/19 01:40:24;;;;;;;31.90;14.13;;;;;;;;;;10507341;28;20877;-77
2022/12/19 01:45:33;;;;;;;31.83;14.18;;;;;;;;;;10509666;28;20028;-76
2022/12/19 01:50:36;;;;;;;41.08;15.05;;;;;;;;;;10523166;28;20032;-74
2022/12/19 01:55:38;;;;;;;37.05;15.02;;;;;;;;;;10523686;28;20127;-79
2022/12/19 02:00:41;;;;;;;36.28;17.15;;;;;;;;;;10506298;28;20056;-80
2022/12/19 02:05:42;;;;;;;35.45;14.65;;;;;;;;;;10519944;28;20024;-77
2022/12/19 02:10:42;;;;;;;36.00;15.13;;;;;;;;;;10506121;28;20020;-80
2022/12/19 02:16:01;;;;;;;37.03;14.13;;;;;;;;;;10507058;28;20023;-81
2022/12/19 02:21:05;;;;;;;33.30;13.95;;;;;;;;;;10505481;28;20328;-80
2022/12/19 02:26:24;;;;;;;33.25;15.30;;;;;;;;;;10522404;28;20020;-76
2022/12/19 02:31:33;;;;;;;35.35;14.98;;;;;;;;;;10510345;28;20020;-76
2022/12/19 02:36:39;;;;;;;27.67;13.00;;;;;;;;;;10513439;28;20099;-72
2022/12/19 02:41:45;;;;;;;35.58;14.82;;;;;;;;;;10513465;28;20512;-78
2022/12/19 02:46:46;;;;;;;39.95;16.33;;;;;;;;;;10513168;28;20402;-75
2022/12/19 02:51:46;;;;;;;34.15;14.35;;;;;;;;;;10530847;28;20516;-79
2022/12/19 02:56:46;;;;;;;29.50;12.82;;;;;;;;;;10531774;28;20107;-75
2022/12/19 03:01:47;;;;;;;40.55;15.70;;;;;;;;;;10512946;28;20039;-75
2022/12/19 03:06:47;;;;;;;45.10;17.00;;;;;;;;;;10512361;28;20383;-73
2022/12/19 03:11:49;;;;;;;39.50;16.10;;;;;;;;;;10530580;28;20039;-73
2022/12/19 03:16:49;;;;;;;41.15;16.42;;;;;;;;;;10513101;28;20027;-77
2022/12/19 03:21:51;;;;;;;35.85;14.13;;;;;;;;;;10515012;28;20045;-75
2022/12/19 03:27:00;;;;;;;38.65;15.68;;;;;;;;;;10550673;28;20031;-74
2022/12/19 03:32:02;;;;;;;37.47;15.60;;;;;;;;;;10527929;28;20024;-75
2022/12/19 03:37:04;;;;;;;40.35;15.52;;;;;;;;;;10517669;28;20020;-76
2022/12/19 03:47:32;;;;;;;39.70;16.35;;;;;;;;;;10498660;28;20020;-76
2022/12/19 03:52:51;;;;;;;38.92;15.50;;;;;;;;;;10509472;28;20044;-80
2022/12/19 03:57:57;;;;;;;39.67;15.75;;;;;;;;;;10511086;28;20106;-78
2022/12/19 04:02:57;;;;;;;43.88;15.55;;;;;;;;;;10511200;28;20031;-79
2022/12/19 04:07:59;;;;;;;40.83;15.10;;;;;;;;;;10509768;28;20101;-75
2022/12/19 04:13:03;;;;;;;36.15;13.07;;;;;;;;;;10509504;28;20030;-80
2022/12/19 04:18:04;;;;;;;34.47;14.23;;;;;;;;;;10491776;28;20055;-74
2022/12/19 04:23:05;;;;;;;32.00;12.98;;;;;;;;;;10495084;28;20094;-79
2022/12/19 04:28:09;;;;;;;42.25;14.18;;;;;;;;;;10494614;28;20020;-78
2022/12/19 04:33:10;;;;;;;33.28;13.45;;;;;;;;;;10508131;28;20110;-74
2022/12/19 04:38:10;;;;;;;36.85;16.23;;;;;;;;;;10508885;28;20008;-75
2022/12/19 04:43:11;;;;;;;32.70;15.03;;;;;;;;;;10526880;28;20024;-77
2022/12/19 04:48:11;;;;;;;36.50;15.40;;;;;;;;;;10509151;28;20504;-78
2022/12/19 04:53:11;;;;;;;36.60;16.35;;;;;;;;;;10507351;28;20548;-80
2022/12/19 04:58:12;;;;;;;38.53;15.45;;;;;;;;;;10524723;28;20071;-76
2022/12/19 05:03:12;;;;;;;37.95;17.08;;;;;;;;;;10523046;28;20119;-75
2022/12/19 05:08:12;;;;;;;43.95;16.33;;;;;;;;;;10519509;28;20023;-78
2022/12/19 05:13:12;;;;;;;40.67;15.45;;;;;;;;;;10509582;28;20028;-75
2022/12/19 05:18:13;;;;;;;41.90;16.40;;;;;;;;;;10528227;28;20012;-75
2022/12/19 05:23:13;;;;;;;39.28;16.35;;;;;;;;;;10498911;28;20020;-76
2022/12/19 05:28:13;;;;;;;37.58;14.55;;;;;;;;;;10510549;28;20020;-75
2022/12/19 05:33:14;;;;;;;37.70;15.05;;;;;;;;;;10523394;28;20024;-78
2022/12/19 05:38:14;;;;;;;45.58;15.88;;;;;;;;;;10507014;28;20017;-75
2022/12/19 05:43:14;;;;;;;38.40;15.88;;;;;;;;;;10505179;28;20024;-82
2022/12/19 05:48:14;;;;;;;39.08;16.50;;;;;;;;;;10505603;28;20012;-75
2022/12/19 05:53:15;;;;;;;36.90;15.63;;;;;;;;;;10522630;28;20522;-75
2022/12/19 05:58:15;;;;;;;30.08;14.15;;;;;;;;;;10493527;28;20516;-77
2022/12/19 06:03:16;;;;;;;39.28;15.68;;;;;;;;;;10502159;28;20128;-76
2022/12/19 06:08:16;;;;;;;46.13;17.55;;;;;;;;;;10527809;28;20553;-75
2022/12/19 06:13:18;;;;;;;35.47;13.48;;;;;;;;;;10512770;28;20016;-82
2022/12/19 06:18:19;;;;;;;37.72;14.45;;;;;;;;;;10515243;28;20028;-80
2022/12/19 06:23:21;;;;;;;35.33;14.57;;;;;;;;;;10514023;28;20489;-79
2022/12/19 06:28:22;;;;;;;38.45;14.70;;;;;;;;;;10508072;28;20024;-76
2022/12/19 06:33:22;;;;;;;40.20;15.25;;;;;;;;;;10512534;28;20034;-79
2022/12/19 06:38:23;;;;;;;36.33;13.32;;;;;;;;;;10532585;28;20122;-79
2022/12/19 06:43:24;;;;;;;31.17;14.85;;;;;;;;;;10504157;28;20082;-76
2022/12/19 06:48:25;;;;;;;42.47;15.95;;;;;;;;;;10536848;28;20028;-80
2022/12/19 06:53:26;;;;;;;39.60;16.08;;;;;;;;;;10513297;28;20087;-73
2022/12/19 06:58:26;;;;;;;37.35;15.50;;;;;;;;;;10512390;28;20492;-73
2022/12/19 07:03:37;;;;;;;32.75;15.27;;;;;;;;;;10511827;28;20533;-79
2022/12/19 07:08:37;;;;;;;35.60;14.38;;;;;;;;;;10511201;28;20462;-75
2022/12/19 07:13:38;;;;;;;38.25;14.25;;;;;;;;;;10530310;28;20050;-78
2022/12/19 07:18:39;;;;;;;40.65;15.57;;;;;;;;;;10530174;28;20484;-80
2022/12/19 07:23:40;;;;;;;43.67;16.98;;;;;;;;;;10523238;28;20052;-75
2022/12/19 07:28:43;;;;;;;48.95;17.48;;;;;;;;;;10534838;28;20462;-76
2022/12/19 07:33:44;;;;;;;43.53;17.75;;;;;;;;;;10528891;28;20024;-76
2022/12/19 07:38:44;;;;;;;45.03;18.30;;;;;;;;;;10513816;28;20111;-77
2022/12/19 07:43:46;;;;;;;53.13;19.90;;;;;;;;;;10527826;28;20028;-74
2022/12/19 07:48:46;;;;;;;61.88;23.17;;;;;;;;;;10528719;28;20016;-76
2022/12/19 07:53:47;;;;;;;51.55;17.95;;;;;;;;;;10509700;28;20037;-77
2022/12/19 07:58:47;;;;;;;45.30;17.02;;;;;;;;;;10510362;28;20111;-76
2022/12/19 08:03:48;;;;;;;51.78;19.88;;;;;;;;;;10526858;28;20111;-77
2022/12/19 08:08:48;;;;;;;45.97;19.92;;;;;;;;;;10527515;28;20024;-82
2022/12/19 08:13:48;;;;;;;54.35;23.40;;;;;;;;;;10509334;28;20054;-80
2022/12/19 08:18:48;;;;;;;51.33;21.47;;;;;;;;;;10509798;28;20093;-78
2022/12/19 08:23:49;;;;;;;45.80;21.80;;;;;;;;;;10509053;28;20135;-80
2022/12/19 08:28:54;;;;;;;53.23;22.30;;;;;;;;;;10525618;28;20012;-78
2022/12/19 08:33:55;;;;;;;51.38;22.60;;;;;;;;;;10508526;28;20507;-79
2022/12/19 08:38:56;;;;;;;53.97;22.10;;;;;;;;;;10509155;28;20466;-79
2022/12/19 08:43:57;;;;;;;52.80;20.52;;;;;;;;;;10525442;28;20027;-74
2022/12/19 08:48:57;;;;;;;43.38;19.52;;;;;;;;;;10524726;28;20546;-76
2022/12/19 08:53:57;;;;;;;54.60;20.80;;;;;;;;;;10507734;28;20571;-79
2022/12/19 08:58:57;;;;;;;47.03;18.27;;;;;;;;;;10524934;28;20030;-80
2022/12/19 09:03:58;;;;;;;44.65;20.48;;;;;;;;;;10524707;28;20031;-75
2022/12/19 09:08:58;;;;;;;55.60;20.25;;;;;;;;;;10507831;28;20527;-78
2022/12/19 09:13:58;;;;;;;45.63;18.50;;;;;;;;;;10523763;28;20184;-74
2022/12/19 09:18:59;;;;;;;41.45;18.45;;;;;;;;;;10525496;28;20039;-80
2022/12/19 09:23:59;;;;;;;51.17;22.05;;;;;;;;;;10524325;28;20173;-81
2022/12/19 09:28:59;;;;;;;41.13;15.30;;;;;;;;;;10522589;28;20504;-77
2022/12/19 09:34:00;;;;;;;55.33;19.53;;;;;;;;;;10524859;28;20031;-75
2022/12/19 09:39:00;;;;;;;43.05;17.17;;;;;;;;;;10528048;28;20027;-77
2022/12/19 09:44:09;;;;;;;44.70;18.48;;;;;;;;;;10532339;28;20079;-76
2022/12/19 09:49:16;;;;;;;42.83;16.45;;;;;;;;;;10513172;28;20051;-76
2022/12/19 09:54:23;;;;;;;48.42;17.75;;;;;;;;;;10516884;28;20205;-77
2022/12/19 09:59:34;;;;;;;44.42;17.17;;;;;;;;;;10496805;28;20033;-80
2022/12/19 10:04:35;;;;;;;48.42;17.10;;;;;;;;;;10506050;28;20164;-80
2022/12/19 10:09:35;;;;;;;47.70;15.52;;;;;;;;;;10505641;28;20054;-79
2022/12/19 10:14:47;;;;;;;38.08;16.10;;;;;;;;;;10506219;28;20043;-78
2022/12/19 10:20:08;;;;;;;42.70;17.02;;;;;;;;;;10464231;28;20058;-78
2022/12/19 10:25:24;;;;;;;45.80;17.95;;;;;;;;;;10496609;28;20038;-82
2022/12/19 10:30:24;;;;;;;44.95;17.92;;;;;;;;;;10505821;28;20024;-80
2022/12/19 10:35:29;;;;;;;39.03;15.93;;;;;;;;;;10522440;28;20024;-80
2022/12/19 10:40:36;;;;;;;42.85;17.77;;;;;;;;;;10523819;28;20048;-81
2022/12/19 10:45:41;;;;;;;38.42;16.83;;;;;;;;;;10505249;28;20032;-80
2022/12/19 10:50:41;;;;;;;46.13;18.90;;;;;;;;;;10506339;28;20032;-79
2022/12/19 10:55:43;;;;;;;38.97;15.93;;;;;;;;;;10496636;28;20053;-76
2022/12/19 11:01:04;;;;;;;36.55;15.70;;;;;;;;;;10470674;28;20032;-75
2022/12/19 11:06:05;;;;;;;36.20;16.40;;;;;;;;;;10469335;28;20035;-80
2022/12/19 11:11:05;;;;;;;33.70;13.85;;;;;;;;;;10487931;28;20090;-76
2022/12/19 11:16:06;;;;;;;31.13;13.48;;;;;;;;;;10470160;28;20444;-77
2022/12/19 11:21:29;;;;;;;31.80;13.25;;;;;;;;;;10470033;28;20056;-80
2022/12/19 11:26:40;;;;;;;34.20;15.45;;;;;;;;;;10480156;28;20130;-81
2022/12/19 11:31:40;;;;;;;34.15;14.85;;;;;;;;;;10467886;28;20078;-75
2022/12/19 11:36:46;;;;;;;29.33;12.93;;;;;;;;;;10487341;28;20032;-85
2022/12/19 11:42:06;;;;;;;29.23;13.05;;;;;;;;;;10469889;28;20025;-80
2022/12/19 11:47:10;;;;;;;29.75;12.65;;;;;;;;;;10487433;28;20036;-78
2022/12/19 11:52:29;;;;;;;37.45;13.65;;;;;;;;;;10490331;28;20052;-76
2022/12/19 11:57:30;;;;;;;28.80;13.40;;;;;;;;;;10514970;28;20016;-82
2022/12/19 12:02:37;;;;;;;30.98;12.15;;;;;;;;;;10523554;28;20028;-75
2022/12/19 12:07:38;;;;;;;40.88;13.52;;;;;;;;;;10525402;28;20024;-76
2022/12/19 12:12:58;;;;;;;31.23;13.30;;;;;;;;;;10515903;28;20024;-75
2022/12/19 12:18:15;;;;;;;34.85;13.50;;;;;;;;;;10509100;28;20032;-79
2022/12/19 12:23:38;;;;;;;39.35;12.30;;;;;;;;;;10527783;28;20070;-76
2022/12/19 12:28:46;;;;;;;27.05;13.35;;;;;;;;;;10504195;28;20035;-80
2022/12/19 12:33:55;;;;;;;24.70;10.67;;;;;;;;;;10509794;28;20520;-77
2022/12/19 12:39:11;;;;;;;24.58;11.38;;;;;;;;;;10526628;28;20017;-77
2022/12/19 12:44:12;;;;;;;31.42;11.98;;;;;;;;;;10508377;28;20066;-76
2022/12/19 12:49:27;;;;;;;28.05;9.70;;;;;;;;;;10525837;28;20474;-74
2022/12/19 12:54:32;;;;;;;24.05;9.68;;;;;;;;;;10507070;28;20575;-73
2022/12/19 12:59:32;;;;;;;24.75;10.75;;;;;;;;;;10507614;28;20556;-78
2022/12/19 13:04:34;;;;;;;22.00;9.13;;;;;;;;;;10525541;28;20560;-75
2022/12/19 13:09:35;;;;;;;23.02;9.43;;;;;;;;;;10532201;28;20534;-74
2022/12/19 13:14:39;;;;;;;24.83;10.07;;;;;;;;;;10518927;28;20370;-75
2022/12/19 13:20:13;;;;;;;20.65;8.27;;;;;;;;;;10541355;28;20453;-81
2022/12/19 13:25:40;;;;;;;23.17;9.60;;;;;;;;;;10503828;28;20021;-74
2022/12/19 13:31:19;;;;;;;25.92;10.60;;;;;;;;;;10519132;28;20039;-75
2022/12/19 13:36:38;;;;;;;18.98;9.38;;;;;;;;;;10300655;28;20038;-76
2022/12/19 13:47:00;;;;;;;23.80;10.65;;;;;;;;;;10516867;28;20032;-80
2022/12/19 13:52:01;;;;;;;26.13;11.00;;;;;;;;;;10504696;28;20461;-75
2022/12/19 13:57:02;;;;;;;26.52;10.95;;;;;;;;;;10503931;28;20081;-80
2022/12/19 14:02:09;;;;;;;15.25;7.45;;;;;;;;;;10505704;28;20051;-82
2022/12/19 14:07:39;;;;;;;29.38;10.95;;;;;;;;;;10504647;28;20555;-75
2022/12/19 14:18:00;;;;;;;27.95;12.57;;;;;;;;;;10557867;28;20028;-77
2022/12/19 14:23:00;;;;;;;29.98;13.27;;;;;;;;;;10528518;28;20353;-76
2022/12/19 14:28:06;;;;;;;26.17;11.80;;;;;;;;;;10541313;28;20032;-75
2022/12/19 14:33:10;;;;;;;21.77;11.02;;;;;;;;;;10524772;28;20138;-74
2022/12/19 14:38:14;;;;;;;22.27;10.82;;;;;;;;;;10495628;28;20020;-79
2022/12/19 14:43:42;;;;;;;29.15;12.80;;;;;;;;;;10511790;28;20482;-76
2022/12/19 14:48:42;;;;;;;27.33;13.20;;;;;;;;;;10510572;28;20039;-78
2022/12/19 14:54:01;;;;;;;22.02;9.27;;;;;;;;;;10529136;28;20063;-77
2022/12/19 14:59:01;;;;;;;19.75;7.70;;;;;;;;;;10510069;28;20037;-77
2022/12/19 15:04:04;;;;;;;19.70;9.53;;;;;;;;;;10510553;28;20020;-76
2022/12/19 15:09:06;;;;;;;27.23;11.02;;;;;;;;;;10528920;28;20273;-76
2022/12/19 15:14:06;;;;;;;26.35;10.98;;;;;;;;;;10510829;28;20032;-75
2022/12/19 15:19:10;;;;;;;27.27;11.30;;;;;;;;;;10530958;28;20024;-78
2022/12/19 15:24:10;;;;;;;28.75;11.85;;;;;;;;;;10512570;28;20043;-76
2022/12/19 15:29:13;;;;;;;27.90;10.77;;;;;;;;;;10528352;28;20488;-80
2022/12/19 15:34:20;;;;;;;30.73;12.15;;;;;;;;;;10508569;28;20068;-76
2022/12/19 15:39:21;;;;;;;32.63;12.95;;;;;;;;;;10525484;28;20110;-79
2022/12/19 15:44:35;;;;;;;34.50;14.27;;;;;;;;;;10512833;28;20030;-78
2022/12/19 15:49:35;;;;;;;35.45;16.10;;;;;;;;;;10494907;28;20274;-75
2022/12/19 15:54:36;;;;;;;38.35;14.63;;;;;;;;;;10525554;28;20449;-73
2022/12/19 15:59:40;;;;;;;34.65;15.65;;;;;;;;;;10518101;28;20435;-79
2022/12/19 16:04:40;;;;;;;46.50;16.85;;;;;;;;;;10524948;28;20039;-77
2022/12/19 16:09:40;;;;;;;36.97;16.57;;;;;;;;;;10502330;28;20461;-73
2022/12/19 16:14:41;;;;;;;42.67;19.13;;;;;;;;;;10507515;28;20069;-78
2022/12/19 16:19:41;;;;;;;49.35;16.90;;;;;;;;;;10516529;28;20059;-76
2022/12/19 16:24:41;;;;;;;36.17;14.98;;;;;;;;;;10510515;28;20027;-74
2022/12/19 16:29:41;;;;;;;50.92;20.40;;;;;;;;;;10530948;28;20171;-74
2022/12/19 16:34:44;;;;;;;43.80;19.23;;;;;;;;;;10540435;28;20531;-73
2022/12/19 16:39:45;;;;;;;45.05;18.55;;;;;;;;;;10525036;28;20078;-80
2022/12/19 16:44:47;;;;;;;47.75;18.63;;;;;;;;;;10506925;28;20119;-78
2022/12/19 16:49:47;;;;;;;45.17;18.98;;;;;;;;;;10508281;28;20031;-77
2022/12/19 16:54:48;;;;;;;51.00;20.65;;;;;;;;;;10511360;28;20036;-78
2022/12/19 16:59:49;;;;;;;46.40;19.98;;;;;;;;;;10485668;28;20020;-77
2022/12/19 17:04:49;;;;;;;46.10;20.42;;;;;;;;;;10523881;28;20088;-77
2022/12/19 17:09:49;;;;;;;37.40;14.60;;;;;;;;;;10505680;28;20028;-75
2022/12/19 17:14:51;;;;;;;30.10;13.88;;;;;;;;;;10506577;28;20027;-73
2022/12/19 17:19:51;;;;;;;24.02;11.20;;;;;;;;;;10511201;28;20039;-73
2022/12/19 17:24:53;;;;;;;30.60;13.05;;;;;;;;;;10503811;28;20038;-76
2022/12/19 17:29:54;;;;;;;37.35;15.82;;;;;;;;;;10501714;28;20039;-76
2022/12/19 17:34:54;;;;;;;37.90;17.10;;;;;;;;;;10506818;28;20028;-73
2022/12/19 17:39:55;;;;;;;43.50;17.60;;;;;;;;;;10501100;28;20035;-77
2022/12/19 17:44:55;;;;;;;36.03;14.05;;;;;;;;;;10507362;28;20081;-73
2022/12/19 17:49:55;;;;;;;32.45;14.18;;;;;;;;;;10520818;28;20498;-78
2022/12/19 17:54:55;;;;;;;32.60;14.07;;;;;;;;;;10520116;28;20098;-78
2022/12/19 17:59:57;;;;;;;25.92;11.27;;;;;;;;;;10502876;28;20016;-76
2022/12/19 18:04:57;;;;;;;29.77;10.27;;;;;;;;;;10528154;28;20024;-82
2022/12/19 18:09:58;;;;;;;25.05;9.02;;;;;;;;;;10510714;28;20492;-77
2022/12/19 18:14:58;;;;;;;19.70;7.93;;;;;;;;;;10511954;28;20055;-75
2022/12/19 18:19:59;;;;;;;23.27;9.55;;;;;;;;;;10530865;28;20031;-74
2022/12/19 18:24:59;;;;;;;16.73;7.55;;;;;;;;;;10511754;28;20031;-78
2022/12/19 18:29:59;;;;;;;20.60;8.30;;;;;;;;;;10513580;28;20026;-73
2022/12/19 18:34:59;;;;;;;13.32;6.63;;;;;;;;;;10517443;28;20040;-73
2022/12/19 18:40:00;;;;;;;17.20;7.70;;;;;;;;;;10536199;28;20042;-75
2022/12/19 18:45:01;;;;;;;20.08;8.77;;;;;;;;;;10531059;28;20262;-79
2022/12/19 18:50:05;;;;;;;15.73;7.22;;;;;;;;;;10533047;28;20509;-78
2022/12/19 18:55:25;;;;;;;22.63;8.23;;;;;;;;;;10506952;28;20071;-74
2022/12/19 19:00:26;;;;;;;21.73;8.48;;;;;;;;;;10530315;28;20094;-77
2022/12/19 19:05:27;;;;;;;21.23;8.40;;;;;;;;;;10528947;28;20032;-75
2022/12/19 19:10:31;;;;;;;16.30;6.75;;;;;;;;;;10510512;28;20032;-78
2022/12/19 19:15:32;;;;;;;21.85;8.75;;;;;;;;;;10528532;28;20024;-77
2022/12/19 19:20:35;;;;;;;19.10;8.95;;;;;;;;;;10508840;28;20032;-75
2022/12/19 19:25:35;;;;;;;19.85;8.15;;;;;;;;;;10510656;28;20042;-74
2022/12/19 19:30:37;;;;;;;19.10;8.00;;;;;;;;;;10511152;28;20040;-72
2022/12/19 19:35:37;;;;;;;17.13;7.93;;;;;;;;;;10525640;28;20089;-75
2022/12/19 19:40:37;;;;;;;19.10;8.67;;;;;;;;;;10517745;28;20105;-74
2022/12/19 19:45:38;;;;;;;17.42;8.57;;;;;;;;;;10509830;28;20845;-77
2022/12/19 19:50:39;;;;;;;18.38;7.53;;;;;;;;;;10527774;28;20012;-78
2022/12/19 19:55:39;;;;;;;18.17;8.10;;;;;;;;;;10506431;28;20051;-79
2022/12/19 20:00:41;;;;;;;18.48;7.70;;;;;;;;;;10509461;28;20242;-74
2022/12/19 20:05:41;;;;;;;18.52;7.68;;;;;;;;;;10505242;28;20074;-75
2022/12/19 20:10:41;;;;;;;19.15;7.88;;;;;;;;;;10508967;28;20496;-73
2022/12/19 20:15:41;;;;;;;14.05;7.60;;;;;;;;;;10515416;28;20492;-73
2022/12/19 20:20:42;;;;;;;13.52;7.72;;;;;;;;;;10507711;28;20511;-74
2022/12/19 20:25:44;;;;;;;10.20;4.70;;;;;;;;;;10507965;28;20410;-74
2022/12/19 20:30:44;;;;;;;17.77;7.47;;;;;;;;;;10507932;28;20035;-75
2022/12/19 20:35:44;;;;;;;11.40;6.30;;;;;;;;;;10529494;28;20024;-75
2022/12/19 20:40:45;;;;;;;9.32;4.18;;;;;;;;;;10544796;28;20042;-75
2022/12/19 20:45:45;;;;;;;6.83;3.63;;;;;;;;;;10525683;28;20020;-74
2022/12/19 20:50:45;;;;;;;12.95;4.85;;;;;;;;;;10526136;28;20090;-75
2022/12/19 20:55:52;;;;;;;11.77;5.33;;;;;;;;;;10517260;28;20040;-74
2022/12/19 21:00:54;;;;;;;7.63;4.40;;;;;;;;;;10525893;28;20262;-74
2022/12/19 21:05:55;;;;;;;11.05;4.35;;;;;;;;;;10506781;28;20452;-80
2022/12/19 21:10:55;;;;;;;10.05;5.50;;;;;;;;;;10504487;28;20024;-75
2022/12/19 21:15:57;;;;;;;17.25;8.15;;;;;;;;;;10507651;28;20023;-78
2022/12/19 21:20:59;;;;;;;23.15;8.48;;;;;;;;;;10506660;28;20051;-77
2022/12/19 21:26:00;;;;;;;20.48;9.93;;;;;;;;;;10502592;28;20111;-76
2022/12/19 21:31:02;;;;;;;17.42;8.02;;;;;;;;;;10504428;28;20028;-75
2022/12/19 21:36:06;;;;;;;15.20;7.60;;;;;;;;;;10535398;28;20103;-78
2022/12/19 21:41:07;;;;;;;15.05;7.47;;;;;;;;;;10506135;28;20024;-75
2022/12/19 21:46:09;;;;;;;14.73;7.45;;;;;;;;;;10505936;28;20036;-76
2022/12/19 21:51:10;;;;;;;17.25;7.18;;;;;;;;;;10507458;28;20032;-79
2022/12/19 21:56:16;;;;;;;14.05;6.38;;;;;;;;;;10507504;28;20059;-82
2022/12/19 22:01:17;;;;;;;19.88;10.25;;;;;;;;;;10525337;28;20027;-78
2022/12/19 22:06:19;;;;;;;18.50;8.88;;;;;;;;;;10507653;28;20406;-81
2022/12/19 22:11:21;;;;;;;14.35;7.07;;;;;;;;;;10525031;28;20602;-75
2022/12/19 22:16:21;;;;;;;25.02;9.13;;;;;;;;;;10507413;28;20178;-80
2022/12/19 22:21:24;;;;;;;19.35;7.53;;;;;;;;;;10506861;28;20606;-81
2022/12/19 22:26:26;;;;;;;36.38;16.42;;;;;;;;;;10525172;28;20512;-75
2022/12/19 22:31:28;;;;;;;15.95;7.65;;;;;;;;;;10512775;28;20056;-76
2022/12/19 22:36:30;;;;;;;14.32;7.53;;;;;;;;;;10528247;28;20020;-75
2022/12/19 22:41:33;;;;;;;17.77;9.20;;;;;;;;;;10510655;28;20020;-77
2022/12/19 22:46:34;;;;;;;21.95;7.90;;;;;;;;;;10518951;28;20502;-74
2022/12/19 22:51:35;;;;;;;16.95;8.77;;;;;;;;;;10513811;28;20038;-74
2022/12/19 22:56:36;;;;;;;18.67;9.77;;;;;;;;;;10513818;28;20048;-79
2022/12/19 23:01:38;;;;;;;23.77;10.30;;;;;;;;;;10514268;28;20039;-80
2022/12/19 23:06:40;;;;;;;21.70;9.32;;;;;;;;;;10513068;28;20107;-79
2022/12/19 23:11:41;;;;;;;18.48;8.70;;;;;;;;;;10513367;28;20024;-81
2022/12/19 23:16:42;;;;;;;23.20;9.18;;;;;;;;;;10513019;28;20432;-75
2022/12/19 23:21:42;;;;;;;22.10;9.90;;;;;;;;;;10512558;28;20031;-75
2022/12/19 23:26:43;;;;;;;16.47;8.60;;;;;;;;;;10521976;28;20023;-75
2022/12/19 23:31:43;;;;;;;20.30;9.27;;;;;;;;;;10534374;28;20031;-75
2022/12/19 23:36:44;;;;;;;20.98;9.80;;;;;;;;;;10542802;28;20072;-77
2022/12/19 23:41:44;;;;;;;9.07;5.55;;;;;;;;;;10547009;28;20016;-75
2022/12/19 23:46:44;;;;;;;19.02;8.70;;;;;;;;;;10511997;28;20410;-77
2022/12/19 23:51:44;;;;;;;20.17;8.43;;;;;;;;;;10511161;28;20383;-79
2022/12/19 23:56:45;;;;;;;18.27;8.63;;;;;;;;;;10511553;28;20515;-80
